Time;durP1;ratioP1;P1;durP2;ratioP2;P2;SDS_P1;SDS_P2;PMS_P1;PMS_P2;Temp;Humidity;BMP_temperature;BMP_pressure;BME280_temperature;BME280_humidity;BME280_pressure;Samples;Min_cycle;Max_cycle;Signal;HPM_P1;HPM_P2
2023/04/13 00:00:20;;;;;;;0.30;0.30;;;;;;;6.63;66.36;96097.97;4984577;28;20084;-63
2023/04/13 00:02:52;;;;;;;0.30;0.30;;;;;;;6.25;66.59;96054.09;4974366;28;20054;-63
2023/04/13 00:05:20;;;;;;;0.30;0.30;;;;;;;6.31;66.90;96067.16;4980021;28;20121;-63
2023/04/13 00:07:47;;;;;;;0.40;0.40;;;;;;;6.58;67.01;96101.81;4983682;28;20054;-62
2023/04/13 00:10:17;;;;;;;0.30;0.30;;;;;;;5.98;66.68;96039.47;4984597;28;20290;-63
2023/04/13 00:12:47;;;;;;;0.30;0.30;;;;;;;6.34;67.62;96107.69;4985377;28;20050;-63
2023/04/13 00:15:18;;;;;;;0.30;0.30;;;;;;;5.63;68.77;96014.06;4983518;28;20201;-63
2023/04/13 00:17:46;;;;;;;0.30;0.30;;;;;;;6.16;68.86;96112.06;4984962;28;20086;-64
2023/04/13 00:20:13;;;;;;;0.30;0.30;;;;;;;6.16;67.82;96128.56;4984469;28;20050;-63
2023/04/13 00:22:45;;;;;;;0.30;0.30;;;;;;;6.11;67.53;96132.41;4984818;28;20043;-63
2023/04/13 00:25:13;;;;;;;0.30;0.30;;;;;;;6.18;67.12;96131.72;4984707;28;20050;-63
2023/04/13 00:27:42;;;;;;;0.30;0.30;;;;;;;6.14;66.48;96130.88;4984604;28;20085;-63
2023/04/13 00:30:11;;;;;;;0.30;0.30;;;;;;;6.04;67.64;96123.22;4984619;28;20796;-63
2023/04/13 00:32:41;;;;;;;0.30;0.30;;;;;;;6.04;67.75;96125.97;4984854;28;20065;-64
2023/04/13 00:35:09;;;;;;;0.30;0.30;;;;;;;6.14;69.29;96123.44;4983065;28;20050;-64
2023/04/13 00:37:37;;;;;;;0.30;0.30;;;;;;;5.76;68.02;96053.94;4984987;28;20128;-64
2023/04/13 00:40:06;;;;;;;0.30;0.30;;;;;;;5.76;67.83;96076.72;4983236;28;20085;-63
2023/04/13 00:42:33;;;;;;;0.30;0.30;;;;;;;6.15;68.92;96127.75;4985119;28;20054;-64
2023/04/13 00:45:00;;;;;;;0.30;0.30;;;;;;;6.14;68.30;96131.69;4984477;28;20050;-64
2023/04/13 00:47:31;;;;;;;0.30;0.30;;;;;;;6.11;67.16;96131.63;4983392;28;20078;-64
2023/04/13 00:50:01;;;;;;;0.30;0.30;;;;;;;6.02;68.43;96133.81;4983948;28;20469;-64
2023/04/13 00:52:28;;;;;;;0.30;0.30;;;;;;;5.98;68.96;96161.22;4984929;28;20051;-64
2023/04/13 00:54:56;;;;;;;0.30;0.30;;;;;;;5.92;67.50;96128.88;4984517;28;20109;-64
2023/04/13 00:57:27;;;;;;;0.30;0.30;;;;;;;5.15;67.46;96003.69;4984545;28;20066;-64
2023/04/13 00:59:54;;;;;;;0.30;0.30;;;;;;;5.55;67.83;96091.97;4983630;28;20554;-63
2023/04/13 01:02:23;;;;;;;0.30;0.30;;;;;;;5.86;67.78;96163.31;4984663;28;20850;-64
2023/04/13 01:04:53;;;;;;;0.30;0.30;;;;;;;5.83;67.42;96159.31;4982965;28;20569;-64
2023/04/13 01:07:23;;;;;;;0.30;0.30;;;;;;;5.87;68.00;96153.91;4984454;28;20054;-64
2023/04/13 01:10:01;;;;;;;0.30;0.30;;;;;;;5.59;69.82;96159.59;4987899;28;20057;-63
2023/04/13 01:12:31;;;;;;;0.30;0.30;;;;;;;5.55;70.07;96155.94;4988113;28;20493;-63
2023/04/13 01:15:08;;;;;;;0.30;0.30;;;;;;;5.37;71.54;96141.03;4988158;28;20678;-64
2023/04/13 01:17:37;;;;;;;0.30;0.30;;;;;;;2.39;70.83;95666.31;4987721;28;20062;-63
2023/04/13 01:20:22;;;;;;;0.30;0.30;;;;;;;5.51;70.01;96170.75;4987930;28;20717;-64
2023/04/13 01:22:54;;;;;;;0.30;0.30;;;;;;;5.41;71.36;96163.06;4987911;28;20533;-65
2023/04/13 01:25:44;;;;;;;0.30;0.30;;;;;;;5.44;71.93;96167.84;5003026;28;20057;-64
2023/04/13 01:28:17;;;;;;;0.30;0.30;;;;;;;5.08;72.01;96099.56;4988102;28;20301;-64
2023/04/13 01:30:51;;;;;;;0.30;0.30;;;;;;;5.38;72.07;96158.28;4986185;28;20549;-64
2023/04/13 01:33:19;;;;;;;0.30;0.30;;;;;;;5.42;72.58;96170.16;4988064;28;20082;-62
2023/04/13 01:35:46;;;;;;;0.30;0.30;;;;;;;5.32;71.99;96155.03;4987000;28;20117;-62
2023/04/13 01:38:13;;;;;;;0.30;0.30;;;;;;;5.24;72.29;96156.03;4987497;28;20109;-64
2023/04/13 01:40:40;;;;;;;0.30;0.30;;;;;;;4.62;72.44;96079.31;5001867;28;20050;-64
2023/04/13 01:43:07;;;;;;;0.30;0.30;;;;;;;4.61;73.29;96108.69;4987826;28;20503;-64
2023/04/13 01:46:15;;;;;;;0.30;0.30;;;;;;;4.96;72.83;96162.81;4987593;28;20493;-63
2023/04/13 01:48:55;;;;;;;0.30;0.30;;;;;;;4.22;73.16;96063.06;4985721;28;20396;-63
2023/04/13 01:51:24;;;;;;;0.30;0.30;;;;;;;4.78;73.56;96172.53;4987208;28;20137;-63
2023/04/13 01:54:09;;;;;;;0.30;0.30;;;;;;;4.72;74.08;96168.47;4987028;28;20536;-63
2023/04/13 01:56:40;;;;;;;0.30;0.30;;;;;;;4.40;74.98;96160.25;4987158;28;20133;-63
2023/04/13 01:59:07;;;;;;;0.30;0.30;;;;;;;4.61;74.66;96190.16;4987081;28;20050;-62
2023/04/13 02:01:36;;;;;;;0.30;0.30;;;;;;;4.56;74.21;96185.75;4987137;28;20046;-61
2023/04/13 02:04:04;;;;;;;0.30;0.30;;;;;;;4.51;75.06;96196.97;4986702;28;20097;-63
2023/04/13 02:06:30;;;;;;;0.30;0.30;;;;;;;3.68;75.08;96058.50;4985648;28;20081;-63
2023/04/13 02:08:58;;;;;;;0.30;0.30;;;;;;;4.48;74.28;96186.69;4986521;28;20483;-63
2023/04/13 02:11:24;;;;;;;0.30;0.30;;;;;;;4.43;74.45;96200.66;4986423;28;20077;-62
2023/04/13 02:13:52;;;;;;;0.30;0.30;;;;;;;4.53;74.24;96182.91;4986873;28;20128;-63
2023/04/13 02:16:18;;;;;;;0.20;0.20;;;;;;;4.54;73.53;96190.78;4987272;28;20054;-62
2023/04/13 02:18:45;;;;;;;0.30;0.30;;;;;;;4.48;72.30;96169.44;4987593;28;20050;-64
2023/04/13 02:21:12;;;;;;;0.30;0.30;;;;;;;4.41;73.37;96175.53;4986325;28;20109;-64
2023/04/13 02:23:40;;;;;;;0.30;0.30;;;;;;;4.38;74.48;96181.72;4986510;28;20414;-64
2023/04/13 02:26:08;;;;;;;0.30;0.30;;;;;;;4.26;75.07;96201.00;4986687;28;20530;-64
2023/04/13 02:28:35;;;;;;;0.22;0.22;;;;;;;4.31;74.36;96197.19;4987097;28;20078;-63
2023/04/13 02:31:02;;;;;;;0.30;0.30;;;;;;;3.22;73.67;96051.75;4983988;28;20080;-63
2023/04/13 02:33:30;;;;;;;0.30;0.30;;;;;;;4.10;74.06;96164.53;4984154;28;20509;-62
2023/04/13 02:36:02;;;;;;;0.30;0.30;;;;;;;4.29;73.87;96200.28;4983644;28;20061;-65
2023/04/13 02:38:30;;;;;;;0.30;0.30;;;;;;;4.30;73.88;96190.91;4966126;28;20055;-63
2023/04/13 02:40:59;;;;;;;0.30;0.30;;;;;;;1.60;74.42;95783.03;4966650;28;20133;-64
2023/04/13 02:43:26;;;;;;;0.30;0.30;;;;;;;3.72;74.46;96136.84;4966669;28;20090;-64
2023/04/13 02:45:53;;;;;;;0.30;0.30;;;;;;;2.03;75.41;95856.88;4966930;28;20069;-64
2023/04/13 02:48:20;;;;;;;0.30;0.30;;;;;;;4.09;75.84;96201.31;4966844;28;20117;-63
2023/04/13 02:50:47;;;;;;;0.30;0.30;;;;;;;3.90;76.27;96203.91;4966584;28;20113;-63
2023/04/13 02:53:15;;;;;;;0.25;0.25;;;;;;;3.98;76.22;96208.41;4965333;28;20055;-64
2023/04/13 02:55:42;;;;;;;0.30;0.30;;;;;;;4.04;75.03;96198.81;4966631;28;20061;-64
2023/04/13 02:58:10;;;;;;;0.25;0.25;;;;;;;3.91;75.64;96200.00;4966764;28;20062;-64
2023/04/13 03:00:37;;;;;;;0.30;0.30;;;;;;;3.86;76.11;96200.25;4966794;28;20138;-64
2023/04/13 03:03:05;;;;;;;0.30;0.30;;;;;;;3.86;76.51;96196.69;4966989;28;20430;-64
2023/04/13 03:05:32;;;;;;;0.30;0.30;;;;;;;3.89;75.93;96202.28;4978842;28;20054;-64
2023/04/13 03:07:59;;;;;;;0.30;0.30;;;;;;;3.86;75.09;96207.66;4985884;28;20119;-64
2023/04/13 03:10:25;;;;;;;0.30;0.30;;;;;;;3.91;75.03;96205.47;4985515;28;20110;-64
2023/04/13 03:12:52;;;;;;;0.30;0.30;;;;;;;3.74;76.45;96213.97;4985960;28;20049;-64
2023/04/13 03:15:19;;;;;;;0.30;0.30;;;;;;;3.11;77.07;96127.22;4985693;28;20054;-63
2023/04/13 03:17:46;;;;;;;0.20;0.20;;;;;;;3.72;76.75;96216.25;4986047;28;20416;-64
2023/04/13 03:20:15;;;;;;;0.30;0.30;;;;;;;3.21;76.44;96140.41;4985604;28;20061;-64
2023/04/13 03:22:44;;;;;;;0.30;0.30;;;;;;;3.37;76.27;96156.94;4986000;28;20054;-62
2023/04/13 03:25:11;;;;;;;0.30;0.30;;;;;;;3.56;75.67;96170.78;4985705;28;20050;-64
2023/04/13 03:27:38;;;;;;;0.30;0.30;;;;;;;3.73;75.88;96212.38;4966904;28;20133;-64
2023/04/13 03:30:06;;;;;;;0.20;0.20;;;;;;;2.70;76.54;96050.97;4965964;28;20058;-64
2023/04/13 03:32:33;;;;;;;0.30;0.30;;;;;;;3.65;76.79;96218.78;4965418;28;20059;-64
2023/04/13 03:35:00;;;;;;;0.30;0.30;;;;;;;3.73;77.86;96220.59;4965713;28;20501;-65
2023/04/13 03:37:31;;;;;;;0.30;0.30;;;;;;;3.64;77.52;96189.81;4966270;28;20157;-62
2023/04/13 03:39:58;;;;;;;0.30;0.30;;;;;;;3.81;76.21;96225.13;4964503;28;20054;-65
2023/04/13 03:42:24;;;;;;;0.30;0.30;;;;;;;3.76;77.80;96219.88;4964495;28;20619;-64
2023/04/13 03:44:51;;;;;;;0.20;0.20;;;;;;;3.67;77.48;96232.94;4965746;28;20122;-64
2023/04/13 03:47:18;;;;;;;0.30;0.30;;;;;;;3.57;78.19;96232.63;4965566;28;20509;-63
2023/04/13 03:49:45;;;;;;;0.25;0.25;;;;;;;3.63;78.06;96236.72;4965687;28;20624;-66
2023/04/13 03:52:11;;;;;;;0.30;0.30;;;;;;;3.67;76.59;96237.59;4965816;28;20514;-64
2023/04/13 03:54:39;;;;;;;0.30;0.30;;;;;;;3.64;78.03;96239.09;4980255;28;20050;-64
2023/04/13 03:57:05;;;;;;;0.20;0.20;;;;;;;3.17;77.80;96168.81;4980530;28;20137;-65
2023/04/13 03:59:32;;;;;;;0.30;0.30;;;;;;;3.73;77.39;96242.50;4965335;28;20062;-63
2023/04/13 04:02:01;;;;;;;0.30;0.30;;;;;;;3.83;75.88;96242.03;4965929;28;20069;-64
2023/04/13 04:04:28;;;;;;;0.30;0.30;;;;;;;3.61;75.30;96231.56;4969163;28;20046;-63
2023/04/13 04:06:56;;;;;;;0.30;0.30;;;;;;;3.77;75.91;96248.09;4985063;28;20089;-64
2023/04/13 04:09:24;;;;;;;0.28;0.28;;;;;;;3.66;76.31;96228.59;4985248;28;20108;-64
2023/04/13 04:11:50;;;;;;;0.20;0.20;;;;;;;3.86;75.66;96252.28;4984737;28;20062;-63
2023/04/13 04:14:18;;;;;;;0.30;0.30;;;;;;;3.83;75.69;96247.50;4985066;28;20505;-64
2023/04/13 04:16:44;;;;;;;0.30;0.30;;;;;;;3.91;76.40;96252.03;4985169;28;20050;-64
2023/04/13 04:19:11;;;;;;;0.30;0.30;;;;;;;3.68;75.75;96226.31;4984698;28;20089;-64
2023/04/13 04:21:43;;;;;;;0.30;0.30;;;;;;;4.05;74.62;96260.66;4984908;28;20082;-64
2023/04/13 04:24:11;;;;;;;0.30;0.30;;;;;;;4.15;75.15;96265.66;4984980;28;20088;-64
2023/04/13 04:26:39;;;;;;;0.30;0.30;;;;;;;4.16;74.76;96267.25;4984630;28;20137;-62
2023/04/13 04:29:08;;;;;;;0.30;0.30;;;;;;;3.45;76.09;96131.34;4983165;28;20513;-63
2023/04/13 04:31:42;;;;;;;0.30;0.30;;;;;;;4.28;75.65;96247.22;4984530;28;20058;-62
2023/04/13 04:34:10;;;;;;;0.30;0.30;;;;;;;4.58;74.92;96268.44;4984613;28;20050;-64
2023/04/13 04:36:40;;;;;;;0.30;0.30;;;;;;;4.33;72.43;96189.44;4983969;28;20050;-63
2023/04/13 04:39:08;;;;;;;0.30;0.30;;;;;;;4.84;72.82;96234.25;4983376;28;20158;-64
2023/04/13 04:41:36;;;;;;;0.30;0.30;;;;;;;4.79;73.12;96229.03;4984373;28;20655;-64
2023/04/13 04:44:07;;;;;;;0.30;0.30;;;;;;;5.22;72.23;96254.41;4985880;28;20050;-64
2023/04/13 04:46:37;;;;;;;0.30;0.30;;;;;;;5.44;71.34;96253.78;4987077;28;20559;-64
2023/04/13 04:49:04;;;;;;;0.30;0.30;;;;;;;4.89;70.39;96129.72;4981077;28;20042;-65
2023/04/13 04:51:30;;;;;;;0.30;0.30;;;;;;;5.88;70.20;96254.44;4970783;28;20058;-62
2023/04/13 04:54:00;;;;;;;0.30;0.30;;;;;;;5.89;68.75;96234.84;4968676;28;20497;-63
2023/04/13 04:56:27;;;;;;;0.30;0.30;;;;;;;5.93;67.44;96219.22;4969117;28;20142;-62
2023/04/13 04:58:54;;;;;;;0.30;0.30;;;;;;;6.28;67.06;96263.13;4968941;28;20051;-63
2023/04/13 05:01:25;;;;;;;0.30;0.30;;;;;;;6.35;66.67;96229.47;4969243;28;20061;-63
2023/04/13 05:03:52;;;;;;;0.30;0.30;;;;;;;6.79;65.15;96250.00;4969550;28;20061;-63
2023/04/13 05:06:19;;;;;;;0.30;0.30;;;;;;;6.80;64.11;96238.63;4985650;28;20058;-62
2023/04/13 05:08:45;;;;;;;0.35;0.35;;;;;;;6.96;64.30;96250.31;4988576;28;20129;-62
2023/04/13 05:11:12;;;;;;;0.40;0.40;;;;;;;6.65;63.80;96179.00;4987678;28;20425;-63
2023/04/13 05:13:39;;;;;;;0.30;0.30;;;;;;;7.19;62.32;96242.84;4987903;28;20116;-63
2023/04/13 05:16:06;;;;;;;0.40;0.40;;;;;;;7.09;63.11;96242.66;5002405;28;20051;-63
2023/04/13 05:18:43;;;;;;;0.40;0.40;;;;;;;6.74;62.90;96149.25;4986814;28;20077;-63
2023/04/13 05:21:09;;;;;;;0.40;0.40;;;;;;;7.20;62.95;96194.88;4988024;28;20344;-64
2023/04/13 05:23:36;;;;;;;0.40;0.40;;;;;;;7.03;63.02;96162.34;4987588;28;20069;-63
2023/04/13 05:26:03;;;;;;;0.40;0.40;;;;;;;7.83;61.49;96268.66;4987664;28;20084;-64
2023/04/13 05:28:29;;;;;;;0.40;0.40;;;;;;;8.10;61.02;96270.22;4986342;28;20061;-64
2023/04/13 05:31:04;;;;;;;0.32;0.32;;;;;;;8.27;60.40;96272.44;4987732;28;20085;-64
2023/04/13 05:33:30;;;;;;;0.40;0.40;;;;;;;7.93;60.30;96229.41;4987689;28;20054;-63
2023/04/13 05:35:57;;;;;;;0.40;0.40;;;;;;;8.34;60.26;96264.28;4986903;28;20563;-62
2023/04/13 05:38:23;;;;;;;0.40;0.40;;;;;;;8.25;59.85;96219.63;4974382;28;20054;-62
2023/04/13 05:40:52;;;;;;;0.40;0.40;;;;;;;8.74;58.13;96283.72;4967824;28;20070;-63
2023/04/13 05:43:19;;;;;;;0.40;0.40;;;;;;;8.76;59.42;96282.16;4964036;28;20527;-63
2023/04/13 05:45:49;;;;;;;0.40;0.40;;;;;;;8.85;59.74;96285.41;4949062;28;20616;-63
2023/04/13 05:48:16;;;;;;;0.40;0.40;;;;;;;9.09;58.91;96278.56;4949514;28;20102;-62
2023/04/13 05:50:43;;;;;;;0.38;0.38;;;;;;;9.08;58.69;96260.41;4961748;28;20047;-60
2023/04/13 05:53:09;;;;;;;0.40;0.40;;;;;;;9.39;58.58;96282.00;4957828;28;20050;-62
2023/04/13 05:55:36;;;;;;;0.40;0.40;;;;;;;9.50;58.02;96282.13;4965450;28;20548;-69
2023/04/13 05:58:02;;;;;;;0.40;0.40;;;;;;;9.61;57.58;96275.47;4951404;28;20106;-58
2023/04/13 06:00:29;;;;;;;0.40;0.40;;;;;;;7.57;57.00;95925.78;4959899;28;20141;-58
2023/04/13 06:02:58;;;;;;;0.40;0.40;;;;;;;9.82;55.95;96272.88;4948343;28;20051;-65
2023/04/13 06:05:25;;;;;;;0.47;0.47;;;;;;;9.73;56.14;96268.88;4959207;28;20074;-66
2023/04/13 06:07:52;;;;;;;0.50;0.50;;;;;;;9.95;56.16;96285.25;4967714;28;20577;-59
2023/04/13 06:10:19;;;;;;;0.40;0.40;;;;;;;9.72;57.07;96276.38;4956734;28;20063;-64
2023/04/13 06:12:47;;;;;;;0.40;0.40;;;;;;;9.13;56.60;96244.28;4967753;28;20093;-62
2023/04/13 06:15:14;;;;;;;0.47;0.47;;;;;;;9.14;57.38;96187.03;4982692;28;20482;-60
2023/04/13 06:17:41;;;;;;;0.47;0.47;;;;;;;9.98;56.69;96281.72;4986799;28;20046;-60
2023/04/13 06:20:09;;;;;;;0.50;0.50;;;;;;;9.82;55.83;96267.34;4984062;28;20081;-60
2023/04/13 06:22:36;;;;;;;0.45;0.45;;;;;;;9.91;54.95;96242.91;4986557;28;20481;-60
2023/04/13 06:25:03;;;;;;;0.50;0.50;;;;;;;10.58;54.30;96282.88;4982559;28;20145;-60
2023/04/13 06:27:32;;;;;;;0.50;0.50;;;;;;;10.19;53.45;96173.97;4981791;28;20046;-63
2023/04/13 06:30:00;;;;;;;0.50;0.50;;;;;;;9.60;52.56;96072.09;4981510;28;20073;-61
2023/04/13 06:32:26;;;;;;;0.50;0.50;;;;;;;10.98;51.80;96211.78;4967146;28;20149;-66
2023/04/13 06:34:53;;;;;;;0.57;0.57;;;;;;;11.07;50.66;96206.63;4970022;28;20054;-59
2023/04/13 06:37:20;;;;;;;0.50;0.50;;;;;;;11.39;50.91;96249.06;4970929;28;20485;-60
2023/04/13 06:39:46;;;;;;;0.50;0.50;;;;;;;11.86;50.71;96279.22;5001179;28;20116;-56
2023/04/13 06:42:14;;;;;;;0.60;0.60;;;;;;;11.97;50.29;96257.78;4983563;28;20082;-70
2023/04/13 06:44:41;;;;;;;0.60;0.60;;;;;;;11.19;50.48;96118.34;4986255;28;20050;-60
2023/04/13 06:47:08;;;;;;;0.57;0.57;;;;;;;12.01;49.66;96280.81;4976666;28;20047;-58
2023/04/13 06:49:35;;;;;;;0.55;0.55;;;;;;;12.29;47.42;96244.66;4979725;28;20069;-64
2023/04/13 06:52:02;;;;;;;0.60;0.60;;;;;;;11.72;48.33;96162.69;4984772;28;20054;-67
2023/04/13 06:54:29;;;;;;;0.60;0.60;;;;;;;12.70;47.44;96278.25;4985684;28;20054;-61
2023/04/13 06:56:56;;;;;;;0.60;0.60;;;;;;;11.76;48.22;96146.84;4986219;28;20050;-64
2023/04/13 06:59:23;;;;;;;0.60;0.60;;;;;;;12.72;46.93;96318.34;4981334;28;20469;-60
2023/04/13 07:01:49;;;;;;;0.60;0.60;;;;;;;12.50;46.73;96277.94;4980186;28;20055;-63
2023/04/13 07:04:16;;;;;;;0.60;0.60;;;;;;;11.82;45.76;96195.19;4971761;28;20049;-59
2023/04/13 07:06:43;;;;;;;0.57;0.57;;;;;;;12.79;45.88;96270.25;4980709;28;20101;-69
2023/04/13 07:09:10;;;;;;;0.57;0.57;;;;;;;12.57;47.84;96258.44;4967822;28;20051;-70
2023/04/13 07:11:38;;;;;;;0.50;0.50;;;;;;;13.06;48.94;96280.50;4966596;28;20062;-60
2023/04/13 07:14:06;;;;;;;0.60;0.60;;;;;;;13.33;49.36;96276.00;4976518;28;20150;-64
2023/04/13 07:16:33;;;;;;;0.55;0.55;;;;;;;13.04;48.35;96205.03;4968380;28;20058;-61
2023/04/13 07:19:00;;;;;;;0.60;0.60;;;;;;;13.80;47.71;96268.13;4980695;28;20058;-61
2023/04/13 07:21:27;;;;;;;0.60;0.60;;;;;;;13.32;44.64;96171.50;4984500;28;20497;-59
2023/04/13 07:23:54;;;;;;;0.60;0.60;;;;;;;13.38;46.02;96258.88;4988589;28;20047;-69
2023/04/13 07:26:20;;;;;;;0.60;0.60;;;;;;;13.48;44.90;96258.00;4984599;28;20113;-70
2023/04/13 07:28:47;;;;;;;0.70;0.70;;;;;;;13.54;44.25;96261.94;4967098;28;20130;-57
2023/04/13 07:31:14;;;;;;;0.60;0.60;;;;;;;13.13;44.49;96263.81;4973114;28;20101;-69
2023/04/13 07:33:40;;;;;;;0.60;0.60;;;;;;;13.14;43.95;96265.38;4982535;28;20046;-62
2023/04/13 07:36:07;;;;;;;0.60;0.60;;;;;;;13.21;43.69;96265.34;4984671;28;20842;-57
2023/04/13 07:38:34;;;;;;;0.60;0.60;;;;;;;13.69;43.12;96268.97;4969578;28;20055;-60
2023/04/13 07:41:01;;;;;;;0.70;0.70;;;;;;;13.78;42.49;96203.69;4979550;28;20089;-61
2023/04/13 07:43:27;;;;;;;0.55;0.55;;;;;;;14.22;42.09;96264.94;4970083;28;20066;-58
2023/04/13 07:45:54;;;;;;;0.60;0.60;;;;;;;14.53;40.96;96256.28;4971412;28;20114;-69
2023/04/13 07:48:21;;;;;;;0.63;0.63;;;;;;;14.87;40.32;96256.28;4982862;28;20046;-61
2023/04/13 07:50:47;;;;;;;0.60;0.60;;;;;;;15.16;37.63;96263.06;4965531;28;20433;-68
2023/04/13 07:53:15;;;;;;;0.70;0.70;;;;;;;15.20;38.31;96261.03;4965178;28;20051;-58
2023/04/13 07:55:41;;;;;;;0.60;0.60;;;;;;;14.99;38.05;96255.72;4965159;28;20125;-60
2023/04/13 07:58:08;;;;;;;0.60;0.60;;;;;;;14.64;39.64;96250.56;4971553;28;20101;-64
2023/04/13 08:00:35;;;;;;;0.70;0.70;;;;;;;14.96;38.71;96245.41;4965061;28;20051;-69
2023/04/13 08:03:01;;;;;;;0.60;0.60;;;;;;;14.42;39.88;96254.81;4965630;28;20129;-70
2023/04/13 08:05:28;;;;;;;0.60;0.60;;;;;;;14.18;39.97;96247.50;4964648;28;20564;-66
2023/04/13 08:07:55;;;;;;;0.60;0.60;;;;;;;14.23;39.86;96247.81;4971696;28;20134;-57
2023/04/13 08:10:21;;;;;;;0.60;0.60;;;;;;;14.54;39.03;96257.09;4969561;28;20058;-58
2023/04/13 08:12:48;;;;;;;0.63;0.63;;;;;;;14.51;39.13;96252.34;4982521;28;20136;-71
2023/04/13 08:15:15;;;;;;;0.60;0.60;;;;;;;14.47;38.97;96232.06;4975398;28;20190;-70
2023/04/13 08:17:41;;;;;;;0.60;0.60;;;;;;;14.32;38.24;96233.44;4964408;28;20047;-61
2023/04/13 08:20:08;;;;;;;0.60;0.60;;;;;;;14.96;38.18;96246.22;4965538;28;20483;-60
2023/04/13 08:22:35;;;;;;;0.63;0.63;;;;;;;15.18;37.43;96243.91;4968469;28;20084;-62
2023/04/13 08:25:04;;;;;;;0.65;0.65;;;;;;;14.76;37.34;96146.91;4965031;28;20061;-60
2023/04/13 08:27:31;;;;;;;0.70;0.70;;;;;;;15.59;37.83;96233.38;4966938;28;20394;-60
2023/04/13 08:30:00;;;;;;;0.70;0.70;;;;;;;15.61;35.85;96185.50;4973908;28;20058;-68
2023/04/13 08:32:27;;;;;;;0.70;0.70;;;;;;;15.87;36.46;96229.34;4974554;28;20059;-61
2023/04/13 08:34:55;;;;;;;0.70;0.70;;;;;;;16.06;37.80;96229.41;4964894;28;20043;-68
2023/04/13 08:37:23;;;;;;;0.70;0.70;;;;;;;16.29;35.99;96223.81;4975663;28;20493;-62
2023/04/13 08:39:55;;;;;;;0.63;0.63;;;;;;;12.33;35.94;95820.56;4989598;28;20058;-61
2023/04/13 08:42:22;;;;;;;0.70;0.70;;;;;;;14.98;36.11;96181.66;4968625;28;20077;-61
2023/04/13 08:44:59;;;;;;;0.70;0.70;;;;;;;14.54;36.29;96025.78;4971545;28;20510;-62
2023/04/13 08:47:27;;;;;;;0.70;0.70;;;;;;;15.76;35.81;96198.78;4966072;28;20051;-68
2023/04/13 08:49:58;;;;;;;0.70;0.70;;;;;;;16.07;34.90;96225.41;4979997;28;20578;-61
2023/04/13 08:52:27;;;;;;;0.70;0.70;;;;;;;15.21;34.80;96070.09;4965985;28;20054;-64
2023/04/13 08:54:55;;;;;;;0.70;0.70;;;;;;;16.10;34.04;96213.38;4965121;28;20438;-67
2023/04/13 08:57:21;;;;;;;0.70;0.70;;;;;;;16.08;34.46;96210.22;4976371;28;20124;-64
2023/04/13 08:59:52;;;;;;;0.75;0.75;;;;;;;16.48;34.87;96197.91;4969693;28;20514;-59
2023/04/13 09:02:23;;;;;;;0.70;0.70;;;;;;;16.39;34.39;96217.22;4984395;28;20062;-63
2023/04/13 09:04:53;;;;;;;0.70;0.70;;;;;;;16.63;34.31;96213.19;4983667;28;20165;-61
2023/04/13 09:07:25;;;;;;;0.70;0.70;;;;;;;16.57;33.84;96214.91;4978483;28;20054;-62
2023/04/13 09:09:57;;;;;;;0.70;0.70;;;;;;;16.71;34.40;96213.06;4972392;28;20050;-65
2023/04/13 09:12:30;;;;;;;0.70;0.70;;;;;;;16.61;32.37;96210.00;4963467;28;20090;-59
2023/04/13 09:14:56;;;;;;;0.80;0.80;;;;;;;16.48;33.19;96189.53;4964692;28;20145;-62
2023/04/13 09:17:29;;;;;;;0.80;0.80;;;;;;;16.91;32.79;96211.03;4975096;28;20148;-62
2023/04/13 09:19:57;;;;;;;0.80;0.80;;;;;;;16.72;32.05;96153.88;4979061;28;20264;-63
2023/04/13 09:22:24;;;;;;;0.70;0.70;;;;;;;17.33;32.67;96198.88;4967434;28;20043;-57
2023/04/13 09:24:51;;;;;;;0.70;0.70;;;;;;;17.18;32.50;96197.66;4963390;28;20510;-66
2023/04/13 09:27:22;;;;;;;0.80;0.80;;;;;;;17.27;31.74;96161.44;4980132;28;20501;-67
2023/04/13 09:29:54;;;;;;;0.80;0.80;;;;;;;17.32;31.90;96202.94;4984062;28;20050;-59
2023/04/13 09:32:22;;;;;;;0.80;0.80;;;;;;;17.65;31.30;96198.97;4985310;28;20054;-58
2023/04/13 09:35:03;;;;;;;0.80;0.80;;;;;;;17.69;31.21;96199.66;4986021;28;20078;-67
2023/04/13 09:37:33;;;;;;;0.90;0.90;;;;;;;17.39;31.45;96197.16;4985787;28;20074;-61
2023/04/13 09:40:26;;;;;;;0.80;0.80;;;;;;;17.64;31.02;96197.41;4987964;28;20535;-66
2023/04/13 09:42:58;;;;;;;0.80;0.80;;;;;;;16.51;30.89;95973.41;4985080;28;20062;-58
2023/04/13 09:45:36;;;;;;;0.80;0.80;;;;;;;18.18;30.07;96204.00;4987185;28;20128;-57
2023/04/13 09:48:04;;;;;;;0.70;0.70;;;;;;;17.02;30.20;96206.78;4985526;28;20054;-60
2023/04/13 09:50:32;;;;;;;0.73;0.73;;;;;;;16.61;30.93;96131.72;4985541;28;20042;-63
2023/04/13 09:53:06;;;;;;;0.80;0.80;;;;;;;17.29;30.96;96145.00;4981011;28;20058;-60
2023/04/13 09:55:34;;;;;;;0.80;0.80;;;;;;;17.61;29.66;96178.66;4984073;28;20057;-62
2023/04/13 09:58:18;;;;;;;0.82;0.82;;;;;;;18.20;30.62;96195.97;4980940;28;21416;-59
2023/04/13 10:00:49;;;;;;;0.90;0.90;;;;;;;18.36;30.35;96169.91;4978320;28;20109;-60
2023/04/13 10:03:17;;;;;;;0.70;0.70;;;;;;;18.39;30.87;96186.66;4985936;28;20054;-61
2023/04/13 10:05:45;;;;;;;0.80;0.80;;;;;;;18.32;29.54;96175.59;4985735;28;20501;-60
2023/04/13 10:08:26;;;;;;;0.90;0.90;;;;;;;18.34;30.90;96173.16;4975028;28;20086;-62
2023/04/13 10:11:10;;;;;;;0.80;0.80;;;;;;;17.88;30.34;96179.16;4974191;28;20074;-60
2023/04/13 10:13:44;;;;;;;0.70;0.70;;;;;;;17.72;31.11;96182.00;4967898;28;20229;-65
2023/04/13 10:16:26;;;;;;;0.80;0.80;;;;;;;18.25;30.22;96170.19;4977509;28;20061;-66
2023/04/13 10:19:00;;;;;;;0.80;0.80;;;;;;;18.27;29.94;96100.47;4981918;28;20054;-64
2023/04/13 10:21:34;;;;;;;0.90;0.90;;;;;;;18.88;30.29;96140.38;4978090;28;20166;-61
2023/04/13 10:24:03;;;;;;;0.90;0.90;;;;;;;19.37;29.52;96155.72;4974630;28;20066;-64
2023/04/13 10:26:38;;;;;;;0.90;0.90;;;;;;;19.58;30.19;96159.09;4967521;28;20422;-61
2023/04/13 10:29:05;;;;;;;0.95;0.95;;;;;;;18.12;29.35;95897.47;4975945;28;20050;-63
2023/04/13 10:31:40;;;;;;;0.98;0.98;;;;;;;20.12;29.13;96154.06;4970034;28;20235;-62
2023/04/13 10:34:09;;;;;;;0.90;0.90;;;;;;;19.98;28.68;96109.56;4983605;28;20089;-62
2023/04/13 10:36:40;;;;;;;0.90;0.90;;;;;;;20.14;29.35;96151.59;4974874;28;20082;-60
2023/04/13 10:39:10;;;;;;;0.90;0.90;;;;;;;19.59;28.71;96138.97;4972780;28;20073;-74
2023/04/13 10:41:37;;;;;;;0.90;0.90;;;;;;;19.89;28.46;96107.44;4975780;28;20579;-58
2023/04/13 10:44:07;;;;;;;0.82;0.82;;;;;;;20.59;28.18;96143.53;4964034;28;20075;-69
2023/04/13 10:46:34;;;;;;;1.00;1.00;;;;;;;20.37;28.36;96072.41;4960412;28;20043;-62
2023/04/13 10:49:03;;;;;;;1.00;1.00;;;;;;;20.85;28.10;96117.63;4965481;28;20247;-60
2023/04/13 10:51:43;;;;;;;0.95;0.95;;;;;;;20.86;28.02;96056.47;4975763;28;20501;-59
2023/04/13 10:54:12;;;;;;;0.80;0.80;;;;;;;21.46;27.04;96130.16;4977560;28;20085;-58
2023/04/13 10:56:39;;;;;;;1.00;1.00;;;;;;;21.35;26.57;96132.63;4973241;28;20528;-58
2023/04/13 10:59:06;;;;;;;1.00;1.00;;;;;;;20.54;26.11;96079.41;4981412;28;20117;-70
2023/04/13 11:01:34;;;;;;;0.90;0.90;;;;;;;20.14;26.86;96072.88;4975813;28;20498;-65
2023/04/13 11:04:03;;;;;;;0.95;0.95;;;;;;;19.46;26.50;96018.19;4979979;28;20271;-69
2023/04/13 11:06:36;;;;;;;0.88;0.88;;;;;;;20.85;26.77;96119.63;4967500;28;20085;-58
2023/04/13 11:09:10;;;;;;;1.00;1.00;;;;;;;21.28;27.04;96113.16;4984875;28;20296;-60
2023/04/13 11:11:40;;;;;;;1.00;1.00;;;;;;;21.19;26.95;96116.75;4984023;28;20050;-65
2023/04/13 11:14:07;;;;;;;0.90;0.90;;;;;;;21.08;26.98;96078.97;4977370;28;20386;-59
2023/04/13 11:16:44;;;;;;;0.98;0.98;;;;;;;21.38;26.37;96109.94;4977183;28;20097;-71
2023/04/13 11:19:11;;;;;;;0.90;0.90;;;;;;;20.21;27.34;96033.22;4981616;28;20081;-71
2023/04/13 11:21:37;;;;;;;0.82;0.82;;;;;;;20.55;27.14;96007.84;4962689;28;20185;-59
2023/04/13 11:24:04;;;;;;;1.00;1.00;;;;;;;21.23;26.65;96052.59;4961267;28;20430;-59
2023/04/13 11:26:37;;;;;;;1.00;1.00;;;;;;;21.45;26.41;96039.19;4962889;28;20528;-60
2023/04/13 11:29:04;;;;;;;;;;;;;;;21.99;26.13;96104.19;4978882;28;20534;-59
2023/04/13 11:31:39;;;;;;;1.08;1.08;;;;;;;21.53;25.24;96099.66;4964351;28;19934;-59
2023/04/13 11:34:08;;;;;;;1.00;1.00;;;;;;;21.41;26.31;96068.78;4964091;28;20359;-59
2023/04/13 11:36:37;;;;;;;0.90;0.90;;;;;;;21.11;26.45;96078.03;4964220;28;20046;-61
2023/04/13 11:39:08;;;;;;;0.98;0.98;;;;;;;21.52;25.67;96092.44;4964245;28;20537;-70
2023/04/13 11:41:40;;;;;;;1.00;1.00;;;;;;;21.40;25.44;96067.22;4964428;28;20145;-60
2023/04/13 11:44:07;;;;;;;0.90;0.90;;;;;;;21.40;24.23;96099.00;4967235;28;20133;-67
2023/04/13 11:46:33;;;;;;;1.00;1.00;;;;;;;21.42;23.60;96093.66;4978031;28;20117;-67